Time;durP1;ratioP1;P1;durP2;ratioP2;P2;SDS_P1;SDS_P2;PMS_P1;PMS_P2;Temp;Humidity;BMP_temperature;BMP_pressure;BME280_temperature;BME280_humidity;BME280_pressure;Samples;Min_cycle;Max_cycle;Signal;HPM_P1;HPM_P2
2022/10/02 00:01:54;;;;;;;5.70;5.20;;;19.60;99.90;;;;;;10566037;28;20254;-86
2022/10/02 00:07:02;;;;;;;6.13;5.07;;;19.30;99.90;;;;;;10535258;28;20244;-86
2022/10/02 00:12:08;;;;;;;5.15;4.72;;;19.50;99.90;;;;;;10535955;28;20225;-86
2022/10/02 00:17:37;;;;;;;4.83;4.43;;;19.50;99.90;;;;;;10500278;28;20241;-86
2022/10/02 00:22:48;;;;;;;4.18;3.78;;;19.50;99.90;;;;;;10548241;28;20232;-86
2022/10/02 00:28:13;;;;;;;4.75;4.22;;;19.50;99.90;;;;;;10535684;28;20193;-86
2022/10/02 00:33:37;;;;;;;5.05;4.55;;;19.50;99.90;;;;;;10536119;28;20262;-86
2022/10/02 00:38:50;;;;;;;4.85;4.45;;;19.50;99.90;;;;;;10537986;28;20225;-86
2022/10/02 00:43:56;;;;;;;4.63;3.83;;;19.30;99.90;;;;;;10516178;28;20252;-86
2022/10/02 00:49:18;;;;;;;4.30;3.72;;;19.50;99.90;;;;;;10553469;28;20683;-86
2022/10/02 00:54:45;;;;;;;4.70;4.07;;;19.50;99.90;;;;;;10574681;28;20209;-86
2022/10/02 01:00:09;;;;;;;4.25;3.85;;;19.40;99.90;;;;;;10572816;28;20352;-86
2022/10/02 01:05:12;;;;;;;6.60;4.10;;;19.30;99.90;;;;;;10534256;28;20244;-86
2022/10/02 01:10:15;;;;;;;4.30;3.90;;;19.40;99.90;;;;;;10533634;28;20648;-86
2022/10/02 01:15:27;;;;;;;3.83;3.47;;;18.90;99.90;;;;;;10551691;28;20267;-86
2022/10/02 01:20:37;;;;;;;3.90;3.60;;;19.10;99.90;;;;;;10532906;28;20255;-86
2022/10/02 01:25:39;;;;;;;3.70;3.40;;;19.40;99.90;;;;;;10533270;28;20306;-86
2022/10/02 01:30:46;;;;;;;4.07;3.20;;;19.20;99.90;;;;;;10507244;28;20226;-86
2022/10/02 01:35:49;;;;;;;5.57;4.18;;;19.30;99.90;;;;;;10490388;28;20287;-86
2022/10/02 01:40:51;;;;;;;3.95;3.55;;;19.20;99.90;;;;;;10519677;28;20197;-86
2022/10/02 01:46:12;;;;;;;3.58;3.25;;;19.20;99.90;;;;;;10538446;28;20278;-86
2022/10/02 01:51:34;;;;;;;4.10;3.70;;;19.10;99.90;;;;;;10565496;28;20249;-86
2022/10/02 01:56:49;;;;;;;4.28;3.88;;;19.10;99.90;;;;;;10574042;28;20574;-86
2022/10/02 02:02:15;;;;;;;4.28;3.30;;;18.90;99.90;;;;;;10553991;28;20221;-86
2022/10/02 02:07:34;;;;;;;3.92;3.55;;;18.90;99.90;;;;;;10544962;28;20245;-86
2022/10/02 02:12:48;;;;;;;3.50;3.20;;;18.90;99.90;;;;;;10541415;28;20740;-86
2022/10/02 02:17:53;;;;;;;3.60;3.30;;;18.90;99.90;;;;;;10540564;28;20205;-86
2022/10/02 02:23:05;;;;;;;3.38;3.13;;;18.70;99.90;;;;;;10538324;28;20229;-86
2022/10/02 02:28:11;;;;;;;3.40;3.10;;;19.00;99.90;;;;;;10550803;28;20305;-86
2022/10/02 02:33:18;;;;;;;3.50;3.20;;;18.90;99.90;;;;;;10563992;28;20278;-86
2022/10/02 02:38:35;;;;;;;2.58;2.38;;;18.30;99.90;;;;;;10539068;28;20229;-86
2022/10/02 02:43:56;;;;;;;4.25;3.28;;;18.70;99.90;;;;;;10557860;28;20320;-86
2022/10/02 02:49:10;;;;;;;3.10;2.80;;;18.90;99.90;;;;;;10578813;28;20262;-86
2022/10/02 02:54:19;;;;;;;4.22;3.42;;;19.00;99.90;;;;;;10539034;28;20662;-86
2022/10/02 02:59:25;;;;;;;3.03;2.73;;;18.80;99.90;;;;;;10538055;28;20237;-86
2022/10/02 03:04:28;;;;;;;3.63;3.05;;;19.00;99.90;;;;;;10509538;28;20292;-86
2022/10/02 03:09:32;;;;;;;3.40;2.80;;;18.90;99.90;;;;;;10500284;28;20225;-86
2022/10/02 03:14:40;;;;;;;2.80;2.60;;;18.90;99.90;;;;;;10536198;28;20674;-86
2022/10/02 03:19:50;;;;;;;2.70;2.50;;;19.00;99.90;;;;;;10536355;28;20267;-86
2022/10/02 03:25:21;;;;;;;4.75;3.05;;;19.10;99.90;;;;;;10502717;28;20271;-86
2022/10/02 03:30:25;;;;;;;4.65;2.15;;;18.90;99.90;;;;;;10436403;28;20231;-86
2022/10/02 03:35:29;;;;;;;3.30;2.28;;;18.70;99.90;;;;;;10450649;28;20260;-86
2022/10/02 03:40:31;;;;;;;3.60;2.37;;;18.80;99.90;;;;;;10484222;28;20226;-85
2022/10/02 03:45:34;;;;;;;3.17;2.53;;;18.90;99.90;;;;;;10437859;28;20303;-86
2022/10/02 03:50:53;;;;;;;2.42;2.22;;;18.90;99.90;;;;;;10507166;28;20202;-86
2022/10/02 03:56:08;;;;;;;4.10;2.50;;;19.10;99.90;;;;;;10532847;28;20225;-86
2022/10/02 04:01:18;;;;;;;4.83;2.53;;;18.80;99.90;;;;;;10485734;28;20292;-86
2022/10/02 04:06:28;;;;;;;2.70;2.37;;;18.60;99.90;;;;;;10493316;28;20254;-86
2022/10/02 04:11:45;;;;;;;2.90;2.63;;;18.70;99.90;;;;;;10467548;28;20193;-86
2022/10/02 04:16:56;;;;;;;3.33;3.03;;;19.00;99.90;;;;;;10516787;28;20208;-86
2022/10/02 04:22:06;;;;;;;3.83;2.50;;;18.90;99.90;;;;;;10481641;28;20206;-86
2022/10/02 04:27:19;;;;;;;2.53;2.03;;;18.90;99.90;;;;;;10532200;28;20260;-86
2022/10/02 04:32:25;;;;;;;3.50;2.60;;;18.90;99.90;;;;;;10546369;28;20610;-86
2022/10/02 04:37:37;;;;;;;4.30;2.27;;;18.90;99.90;;;;;;10535318;28;20198;-86
2022/10/02 04:43:00;;;;;;;4.15;2.53;;;18.60;99.90;;;;;;10535339;28;20266;-86
2022/10/02 04:48:46;;;;;;;5.03;2.60;;;18.80;99.90;;;;;;10548623;28;20284;-86
2022/10/02 04:54:26;;;;;;;3.63;3.13;;;18.90;99.90;;;;;;10495972;28;20578;-86
2022/10/02 04:59:43;;;;;;;4.00;2.57;;;19.10;99.90;;;;;;10533997;28;20259;-86
2022/10/02 05:05:04;;;;;;;4.70;2.93;;;19.00;99.90;;;;;;10533666;28;20248;-86
2022/10/02 05:10:43;;;;;;;5.33;2.67;;;18.90;99.90;;;;;;10562522;28;20277;-86
2022/10/02 05:15:55;;;;;;;2.47;2.22;;;18.70;99.90;;;;;;10542138;28;20301;-86
2022/10/02 05:21:16;;;;;;;4.80;2.30;;;18.90;99.90;;;;;;10550959;28;20278;-86
2022/10/02 05:26:30;;;;;;;2.78;2.58;;;18.70;99.90;;;;;;10531053;28;20268;-86
2022/10/02 05:32:21;;;;;;;4.10;2.33;;;18.80;99.90;;;;;;10519019;28;20315;-86
2022/10/02 05:37:51;;;;;;;3.00;2.70;;;18.80;99.90;;;;;;10526861;28;20241;-86
2022/10/02 05:43:07;;;;;;;2.23;1.97;;;18.60;99.90;;;;;;10533006;28;20210;-86
2022/10/02 05:48:36;;;;;;;4.23;2.37;;;18.80;99.90;;;;;;10557691;28;20278;-87
2022/10/02 05:53:56;;;;;;;3.03;2.70;;;18.90;99.90;;;;;;10548789;28;20256;-87
2022/10/02 05:59:01;;;;;;;7.67;2.53;;;19.00;99.90;;;;;;10541315;28;20213;-87
2022/10/02 06:04:42;;;;;;;3.70;2.47;;;18.70;99.90;;;;;;10539476;28;20573;-87
2022/10/02 06:09:59;;;;;;;5.07;2.70;;;18.60;99.90;;;;;;10443691;28;20716;-87
2022/10/02 06:15:15;;;;;;;6.67;2.87;;;18.80;99.90;;;;;;10435839;28;20296;-87
2022/10/02 06:20:20;;;;;;;3.37;2.60;;;18.90;99.90;;;;;;10451694;28;20226;-87
2022/10/02 06:25:29;;;;;;;6.67;2.40;;;18.50;99.90;;;;;;10432369;28;20258;-87
2022/10/02 06:30:36;;;;;;;3.27;2.73;;;18.80;99.90;;;;;;10452781;28;20239;-87
2022/10/02 06:35:52;;;;;;;4.40;2.53;;;18.80;99.90;;;;;;10448118;28;20289;-86
2022/10/02 06:41:08;;;;;;;4.90;2.57;;;18.70;99.90;;;;;;10450814;28;20732;-87
2022/10/02 06:46:21;;;;;;;6.30;2.83;;;18.90;99.90;;;;;;10551694;28;20632;-87
2022/10/02 06:51:51;;;;;;;3.03;2.53;;;19.00;99.90;;;;;;10578938;28;20228;-87
2022/10/02 06:57:09;;;;;;;5.73;2.43;;;19.00;99.90;;;;;;10548012;28;20229;-87
2022/10/02 07:02:31;;;;;;;3.40;2.40;;;18.80;99.90;;;;;;10537069;28;20230;-87
2022/10/02 07:08:09;;;;;;;2.43;2.23;;;18.70;99.90;;;;;;10536340;28;20235;-87
2022/10/02 07:13:11;;;;;;;4.40;2.70;;;19.00;99.90;;;;;;10536915;28;20279;-87
2022/10/02 07:18:32;;;;;;;3.23;2.30;;;18.70;99.90;;;;;;10536223;28;20232;-87
2022/10/02 07:23:40;;;;;;;3.30;2.23;;;18.70;99.90;;;;;;10534887;28;20636;-87
2022/10/02 07:29:05;;;;;;;6.17;3.13;;;18.70;99.90;;;;;;10537111;28;20564;-87
2022/10/02 07:34:36;;;;;;;3.10;2.63;;;18.70;99.90;;;;;;10531605;28;20260;-87
2022/10/02 07:39:44;;;;;;;3.40;2.50;;;18.90;99.90;;;;;;10534218;28;20248;-87
2022/10/02 07:45:02;;;;;;;7.87;2.60;;;18.40;99.90;;;;;;10535676;28;20314;-87
2022/10/02 07:50:46;;;;;;;5.10;2.97;;;18.60;99.90;;;;;;10543182;28;20265;-87
2022/10/02 07:55:52;;;;;;;4.47;2.50;;;18.60;99.90;;;;;;10572901;28;20251;-87
2022/10/02 08:01:01;;;;;;;4.07;2.40;;;18.90;99.90;;;;;;10534348;28;20241;-87
2022/10/02 08:06:05;;;;;;;5.73;2.63;;;18.90;99.90;;;;;;10553399;28;20252;-87
2022/10/02 08:11:20;;;;;;;6.07;2.50;;;18.70;99.90;;;;;;10540217;28;20259;-88
2022/10/02 08:16:26;;;;;;;6.10;2.40;;;18.90;99.90;;;;;;10535582;28;20282;-87
2022/10/02 08:21:33;;;;;;;5.10;2.47;;;19.10;99.90;;;;;;10535701;28;20636;-87
2022/10/02 08:26:56;;;;;;;2.93;2.63;;;19.00;99.90;;;;;;10506333;28;20576;-87
2022/10/02 08:31:59;;;;;;;8.57;3.20;;;19.10;99.90;;;;;;10443151;28;20257;-86
2022/10/02 08:37:17;;;;;;;4.00;3.40;;;19.10;99.90;;;;;;10472587;28;20198;-87
2022/10/02 08:42:38;;;;;;;3.30;2.57;;;19.00;99.90;;;;;;10462891;28;20264;-86
2022/10/02 08:47:58;;;;;;;4.57;2.90;;;19.20;99.90;;;;;;10490532;28;20673;-86
2022/10/02 08:53:01;;;;;;;2.53;2.30;;;18.90;99.90;;;;;;10492847;28;20237;-86
2022/10/02 08:58:21;;;;;;;7.77;3.10;;;18.70;99.90;;;;;;10474795;28;20214;-86
2022/10/02 09:04:24;;;;;;;8.70;3.27;;;18.90;99.90;;;;;;10446430;28;20677;-86
2022/10/02 09:09:43;;;;;;;3.30;3.00;;;18.90;99.90;;;;;;10308674;28;20330;-86
2022/10/02 09:14:49;;;;;;;3.03;2.73;;;19.00;99.90;;;;;;10323877;28;20247;-87
2022/10/02 09:20:33;;;;;;;4.20;2.77;;;18.70;99.90;;;;;;10273266;28;20245;-86
2022/10/02 09:26:14;;;;;;;4.07;2.83;;;18.90;99.90;;;;;;10330904;28;20290;-86
2022/10/02 09:32:05;;;;;;;5.50;3.13;;;18.90;99.90;;;;;;10408157;28;20208;-86
2022/10/02 09:37:29;;;;;;;6.87;2.80;;;18.90;99.90;;;;;;10308495;28;20231;-86
2022/10/02 09:42:59;;;;;;;4.17;2.60;;;19.10;99.90;;;;;;10406146;28;20249;-86
2022/10/02 09:48:41;;;;;;;3.27;2.47;;;19.10;99.90;;;;;;10039796;28;9999715;-86
2022/10/02 09:54:25;;;;;;;5.37;2.77;;;19.10;99.90;;;;;;10394902;28;20222;-86
2022/10/02 09:59:45;;;;;;;4.37;2.53;;;19.10;99.90;;;;;;10199593;29;20269;-86
2022/10/02 10:04:48;;;;;;;4.13;2.80;;;18.90;99.90;;;;;;10252777;28;20213;-86
2022/10/02 10:10:39;;;;;;;5.67;2.90;;;18.90;99.90;;;;;;10309388;28;20264;-88
2022/10/02 10:16:10;;;;;;;3.50;2.37;;;19.00;99.90;;;;;;10443955;28;20242;-87
2022/10/02 10:21:57;;;;;;;2.97;1.67;;;19.00;99.90;;;;;;10446957;28;20257;-88
2022/10/02 10:27:03;;;;;;;4.30;2.30;;;18.50;99.90;;;;;;10426823;28;20261;-87
2022/10/02 10:32:48;;;;;;;4.00;2.77;;;18.80;99.90;;;;;;10449935;28;20700;-88
2022/10/02 10:44:02;;;;;;;3.47;1.97;;;18.70;99.90;;;;;;10531337;28;20197;-88
2022/10/02 10:49:41;;;;;;;2.93;2.50;;;18.50;99.90;;;;;;10540676;28;20278;-87
2022/10/02 10:55:11;;;;;;;5.47;2.93;;;18.60;99.90;;;;;;10547478;28;20216;-88
2022/10/02 11:00:20;;;;;;;4.90;2.50;;;18.90;99.90;;;;;;10517901;28;20258;-88
2022/10/02 11:05:53;;;;;;;4.23;2.83;;;18.70;99.90;;;;;;10525955;28;20194;-88
2022/10/02 11:11:08;;;;;;;2.57;2.20;;;18.70;99.90;;;;;;10508897;28;20199;-88
2022/10/02 11:20:35;;;;;;;9.20;2.37;;;17.90;99.90;;;;;;10607870;27;20551;-89
2022/10/02 11:25:58;;;;;;;7.23;2.33;;;17.90;99.90;;;;;;10580054;28;20201;-88
2022/10/02 11:31:22;;;;;;;9.70;3.37;;;18.00;99.90;;;;;;10592008;27;20234;-88
2022/10/02 11:36:59;;;;;;;6.80;2.20;;;18.60;99.90;;;;;;10533193;28;20225;-88
2022/10/02 11:42:22;;;;;;;3.60;1.77;;;18.90;99.90;;;;;;10645805;27;20173;-88
2022/10/02 11:47:58;;;;;;;3.57;2.40;;;18.70;99.90;;;;;;10639378;27;20192;-88
2022/10/02 11:53:23;;;;;;;2.60;1.60;;;18.50;99.90;;;;;;10661972;27;20204;-88
2022/10/02 11:58:26;;;;;;;3.63;2.07;;;18.60;99.90;;;;;;10627047;28;20209;-89
2022/10/02 12:03:38;;;;;;;3.03;2.10;;;18.70;99.90;;;;;;10628451;27;20180;-89
2022/10/02 12:09:06;;;;;;;2.60;1.90;;;18.80;99.90;;;;;;10637324;27;20186;-90
2022/10/02 12:14:31;;;;;;;5.25;2.45;;;18.90;99.90;;;;;;10620932;28;20207;-89
2022/10/02 12:26:57;;;;;;;2.57;1.57;;;18.60;99.90;;;;;;10615004;28;20204;-89
2022/10/02 12:42:13;;;;;;;4.40;2.35;;;20.30;99.90;;;;;;10571534;27;1391876;-80
2022/10/02 12:47:34;;;;;;;7.35;2.45;;;20.10;99.90;;;;;;10282640;28;120440;-79
2022/10/02 13:15:36;;;;;;;7.25;2.90;;;19.80;99.90;;;;;;13016955;22;1471915;-93
2022/10/02 13:20:50;;;;;;;7.82;3.60;;;18.30;99.90;;;;;;13034843;22;20231;-94
2022/10/02 13:26:28;;;;;;;4.93;2.63;;;18.90;99.90;;;;;;13039435;22;20168;-95
2022/10/02 13:32:30;;;;;;;7.78;3.17;;;18.60;99.90;;;;;;13032807;22;20599;-94
2022/10/02 13:37:59;;;;;;;6.73;3.83;;;18.50;99.90;;;;;;12963290;22;20221;-94
2022/10/02 13:43:19;;;;;;;3.93;2.93;;;18.50;99.90;;;;;;12967704;22;20193;-94
2022/10/02 13:49:05;;;;;;;4.40;2.70;;;18.70;99.90;;;;;;13003358;22;20169;-95
2022/10/02 13:55:01;;;;;;;4.83;2.30;;;18.70;99.90;;;;;;13096424;22;20658;-92
2022/10/02 14:06:38;;;;;;;5.10;3.03;;;18.40;99.90;;;;;;12970840;22;20232;-95
2022/10/02 14:12:19;;;;;;;7.87;2.90;;;18.30;99.90;;;;;;13025147;22;20227;-96
2022/10/02 14:17:47;;;;;;;4.87;2.63;;;18.50;99.90;;;;;;12979926;22;20177;-95
2022/10/02 14:23:12;;;;;;;3.97;2.67;;;18.30;99.90;;;;;;12983444;22;20212;-95
2022/10/02 14:28:33;;;;;;;5.03;3.00;;;18.30;99.90;;;;;;12980984;22;20173;-95
2022/10/02 14:34:24;;;;;;;3.90;2.80;;;18.40;99.90;;;;;;12983416;22;20177;-95
2022/10/02 14:39:41;;;;;;;4.47;2.37;;;18.20;99.90;;;;;;12794132;22;20227;-96
2022/10/02 14:45:10;;;;;;;5.50;2.23;;;18.40;99.90;;;;;;12809372;23;20196;-95
2022/10/02 14:50:39;;;;;;;4.00;2.20;;;18.50;99.90;;;;;;12807401;23;20176;-96
2022/10/02 15:01:42;;;;;;;3.23;2.13;;;18.40;99.90;;;;;;13010150;22;20236;-96
2022/10/02 15:07:12;;;;;;;4.90;1.90;;;18.40;99.90;;;;;;12959718;22;20230;-95
2022/10/02 15:12:35;;;;;;;4.70;2.00;;;18.50;99.90;;;;;;12960228;22;20235;-95
2022/10/02 15:18:38;;;;;;;5.53;2.77;;;18.30;99.90;;;;;;12985450;22;20174;-95
2022/10/02 15:23:49;;;;;;;3.80;1.57;;;18.10;99.90;;;;;;12947236;22;20193;-96
2022/10/02 15:29:22;;;;;;;7.73;1.63;;;16.10;99.90;;;;;;12941989;22;20170;-95
2022/10/02 15:34:41;;;;;;;2.90;1.80;;;14.60;99.90;;;;;;12966515;22;20209;-95
2022/10/02 15:40:23;;;;;;;4.03;1.53;;;14.70;99.90;;;;;;12943324;22;20173;-95
2022/10/02 15:45:47;;;;;;;1.63;1.10;;;14.10;99.90;;;;;;12920834;22;20228;-95
2022/10/02 15:50:52;;;;;;;4.93;3.13;;;13.80;99.90;;;;;;12969295;22;20170;-95
2022/10/02 15:56:22;;;;;;;3.67;2.40;;;14.00;99.90;;;;;;12970926;22;20174;-94
2022/10/02 16:01:46;;;;;;;5.67;2.57;;;15.80;99.90;;;;;;12942101;22;20203;-92
2022/10/02 16:07:26;;;;;;;3.10;2.60;;;17.20;99.90;;;;;;12940613;22;20177;-93
2022/10/02 16:12:32;;;;;;;5.90;3.00;;;17.90;99.90;;;;;;12939685;22;20173;-93
2022/10/02 16:17:37;;;;;;;7.90;3.10;;;18.20;99.90;;;;;;12964246;22;20200;-95
2022/10/02 16:23:18;;;;;;;4.30;2.20;;;18.20;99.90;;;;;;12938539;22;20250;-94
2022/10/02 16:28:53;;;;;;;2.17;1.40;;;18.20;99.90;;;;;;12913026;22;20170;-93
2022/10/02 16:34:19;;;;;;;3.83;2.43;;;17.50;99.90;;;;;;12961198;22;20231;-93
2022/10/02 16:39:38;;;;;;;4.73;1.63;;;17.40;99.90;;;;;;12934443;22;20200;-94
2022/10/02 16:44:56;;;;;;;2.53;1.63;;;14.20;99.90;;;;;;12957949;22;20197;-93
2022/10/02 16:50:16;;;;;;;3.70;1.80;;;13.10;99.90;;;;;;12958567;22;20223;-93
2022/10/02 16:55:31;;;;;;;5.30;2.00;;;12.60;99.90;;;;;;12963743;22;20173;-93
2022/10/02 17:00:49;;;;;;;2.60;1.97;;;12.30;99.90;;;;;;12935674;22;20205;-94
2022/10/02 17:06:04;;;;;;;3.10;2.13;;;11.90;99.90;;;;;;12937141;22;20173;-93
2022/10/02 17:11:44;;;;;;;5.67;2.03;;;11.90;99.90;;;;;;12937944;22;20199;-93
2022/10/02 17:16:54;;;;;;;2.23;2.03;;;11.90;99.90;;;;;;12932242;22;20178;-93
2022/10/02 17:22:10;;;;;;;5.10;2.87;;;12.00;99.90;;;;;;12957814;22;20235;-93
2022/10/02 17:27:34;;;;;;;11.03;5.23;;;12.10;99.90;;;;;;12931824;22;20175;-93
2022/10/02 17:32:49;;;;;;;8.27;5.30;;;11.70;99.90;;;;;;12959061;22;20231;-93
2022/10/02 17:37:59;;;;;;;9.77;5.53;;;11.30;99.90;;;;;;12958174;22;20223;-93
2022/10/02 17:43:23;;;;;;;9.10;5.73;;;11.00;99.90;;;;;;12956913;22;20733;-93
2022/10/02 17:48:25;;;;;;;18.10;11.60;;;10.70;99.90;;;;;;12934020;22;20178;-93
2022/10/02 17:59:26;;;;;;;5.27;4.77;;;10.20;99.90;;;;;;12961204;22;20202;-94
2022/10/02 18:05:06;;;;;;;9.93;6.93;;;10.00;99.90;;;;;;12961122;22;20186;-94
2022/10/02 18:10:25;;;;;;;9.63;6.63;;;9.70;99.90;;;;;;12960699;22;20196;-94
2022/10/02 18:15:36;;;;;;;5.87;4.30;;;9.40;99.90;;;;;;12959541;22;20182;-94
2022/10/02 18:20:56;;;;;;;12.70;7.53;;;9.10;99.90;;;;;;12937978;22;20531;-95
2022/10/02 18:26:29;;;;;;;6.83;4.77;;;8.90;99.90;;;;;;12935816;22;20232;-95
2022/10/02 18:31:31;;;;;;;7.40;4.17;;;12.80;99.90;;;;;;12912101;22;20182;-93
2022/10/02 18:37:47;;;;;;;5.50;2.70;;;14.90;99.90;;;;;;12958486;22;20174;-95
2022/10/02 18:43:11;;;;;;;3.77;3.20;;;15.90;99.90;;;;;;12947216;22;20220;-94
2022/10/02 18:48:56;;;;;;;5.70;3.50;;;16.70;99.90;;;;;;12954585;22;20492;-92
2022/10/02 18:54:44;;;;;;;4.40;2.90;;;17.20;99.90;;;;;;12790889;23;20175;-92
2022/10/02 19:00:03;;;;;;;5.37;3.50;;;17.60;99.90;;;;;;12790668;23;20233;-94
2022/10/02 19:05:45;;;;;;;5.03;3.60;;;17.70;99.90;;;;;;12791005;23;20211;-94
2022/10/02 19:11:57;;;;;;;4.93;3.20;;;17.90;99.90;;;;;;12671078;23;20180;-93
2022/10/02 19:17:11;;;;;;;4.03;2.97;;;17.90;99.90;;;;;;12620674;23;20176;-94
2022/10/02 19:28:04;;;;;;;4.13;3.57;;;18.00;99.90;;;;;;12609558;23;20232;-94
